sensor_id;sensor_type;location;lat;lon;timestamp;temperature;humidity
14705;DHT22;7442;50.840;3.396;2023-07-30T08:09:39;22.70;66.10
14705;DHT22;7442;50.840;3.396;2023-07-30T08:12:26;22.70;66.40
14705;DHT22;7442;50.840;3.396;2023-07-30T08:15:13;22.70;66.30
14705;DHT22;7442;50.840;3.396;2023-07-30T08:17:59;22.60;66.60
14705;DHT22;7442;50.840;3.396;2023-07-30T08:20:45;22.60;66.70
14705;DHT22;7442;50.840;3.396;2023-07-30T08:23:31;22.60;66.80
14705;DHT22;7442;50.840;3.396;2023-07-30T08:26:18;22.60;66.80
14705;DHT22;7442;50.840;3.396;2023-07-30T08:29:04;22.70;66.30
14705;DHT22;7442;50.840;3.396;2023-07-30T08:31:52;22.80;66.80
14705;DHT22;7442;50.840;3.396;2023-07-30T08:34:39;22.90;65.80
14705;DHT22;7442;50.840;3.396;2023-07-30T08:37:25;23.10;65.40
14705;DHT22;7442;50.840;3.396;2023-07-30T08:40:12;23.00;65.30
14705;DHT22;7442;50.840;3.396;2023-07-30T08:42:59;23.00;65.50
14705;DHT22;7442;50.840;3.396;2023-07-30T08:45:45;22.90;65.50
14705;DHT22;7442;50.840;3.396;2023-07-30T08:48:32;22.90;66.00
14705;DHT22;7442;50.840;3.396;2023-07-30T08:51:18;22.80;66.20
14705;DHT22;7442;50.840;3.396;2023-07-30T08:54:05;22.80;66.30
14705;DHT22;7442;50.840;3.396;2023-07-30T08:56:52;23.00;66.00
14705;DHT22;7442;50.840;3.396;2023-07-30T08:59:42;23.10;65.90
14705;DHT22;7442;50.840;3.396;2023-07-30T09:02:41;23.20;65.60
14705;DHT22;7442;50.840;3.396;2023-07-30T09:05:22;23.40;65.00
14705;DHT22;7442;50.840;3.396;2023-07-30T09:08:11;23.70;64.30
14705;DHT22;7442;50.840;3.396;2023-07-30T09:11:06;23.70;63.60
14705;DHT22;7442;50.840;3.396;2023-07-30T09:13:54;23.70;63.50
14705;DHT22;7442;50.840;3.396;2023-07-30T09:16:41;23.90;63.20
14705;DHT22;7442;50.840;3.396;2023-07-30T09:19:27;23.90;63.00
14705;DHT22;7442;50.840;3.396;2023-07-30T09:22:20;24.00;62.70
14705;DHT22;7442;50.840;3.396;2023-07-30T09:25:03;24.10;62.90
14705;DHT22;7442;50.840;3.396;2023-07-30T09:27:51;24.00;62.50
14705;DHT22;7442;50.840;3.396;2023-07-30T09:30:38;23.90;62.90
14705;DHT22;7442;50.840;3.396;2023-07-30T09:33:24;23.80;63.40
14705;DHT22;7442;50.840;3.396;2023-07-30T09:36:11;23.80;63.40
14705;DHT22;7442;50.840;3.396;2023-07-30T09:38:57;24.00;62.40
14705;DHT22;7442;50.840;3.396;2023-07-30T09:41:43;24.00;61.90
14705;DHT22;7442;50.840;3.396;2023-07-30T09:44:34;24.10;61.70
14705;DHT22;7442;50.840;3.396;2023-07-30T09:47:21;24.20;61.50
14705;DHT22;7442;50.840;3.396;2023-07-30T09:50:15;24.20;61.10
14705;DHT22;7442;50.840;3.396;2023-07-30T09:53:01;24.20;61.00
14705;DHT22;7442;50.840;3.396;2023-07-30T09:55:49;24.10;60.90
14705;DHT22;7442;50.840;3.396;2023-07-30T09:58:36;24.00;61.00
14705;DHT22;7442;50.840;3.396;2023-07-30T10:01:24;23.90;61.40
14705;DHT22;7442;50.840;3.396;2023-07-30T10:04:12;23.90;61.00
14705;DHT22;7442;50.840;3.396;2023-07-30T10:07:04;24.00;60.30
14705;DHT22;7442;50.840;3.396;2023-07-30T10:09:55;24.00;60.40
14705;DHT22;7442;50.840;3.396;2023-07-30T10:12:43;24.10;60.30
14705;DHT22;7442;50.840;3.396;2023-07-30T10:15:29;24.10;60.20
14705;DHT22;7442;50.840;3.396;2023-07-30T10:18:18;24.00;60.20
14705;DHT22;7442;50.840;3.396;2023-07-30T10:21:08;23.90;60.30
14705;DHT22;7442;50.840;3.396;2023-07-30T10:24:03;23.90;60.10
14705;DHT22;7442;50.840;3.396;2023-07-30T10:26:50;24.00;60.00
14705;DHT22;7442;50.840;3.396;2023-07-30T10:29:38;24.00;60.20
14705;DHT22;7442;50.840;3.396;2023-07-30T10:32:37;24.00;60.50
14705;DHT22;7442;50.840;3.396;2023-07-30T10:35:36;23.90;60.50
14705;DHT22;7442;50.840;3.396;2023-07-30T10:38:28;23.90;60.80
14705;DHT22;7442;50.840;3.396;2023-07-30T10:41:16;24.00;60.90
14705;DHT22;7442;50.840;3.396;2023-07-30T10:44:02;24.10;60.50
14705;DHT22;7442;50.840;3.396;2023-07-30T10:46:49;24.10;60.10
14705;DHT22;7442;50.840;3.396;2023-07-30T10:49:39;24.20;60.30
14705;DHT22;7442;50.840;3.396;2023-07-30T10:52:35;24.20;59.60
14705;DHT22;7442;50.840;3.396;2023-07-30T10:55:28;24.20;59.40
14705;DHT22;7442;50.840;3.396;2023-07-30T10:58:10;24.20;59.30
14705;DHT22;7442;50.840;3.396;2023-07-30T11:00:57;24.20;59.20
14705;DHT22;7442;50.840;3.396;2023-07-30T11:03:47;24.20;59.00
14705;DHT22;7442;50.840;3.396;2023-07-30T11:06:31;24.20;58.70
14705;DHT22;7442;50.840;3.396;2023-07-30T11:09:19;24.20;58.50
14705;DHT22;7442;50.840;3.396;2023-07-30T11:12:08;24.20;58.70
14705;DHT22;7442;50.840;3.396;2023-07-30T11:15:02;24.20;58.40
14705;DHT22;7442;50.840;3.396;2023-07-30T11:17:51;24.30;58.20
14705;DHT22;7442;50.840;3.396;2023-07-30T11:20:37;24.30;57.90
14705;DHT22;7442;50.840;3.396;2023-07-30T11:23:24;24.30;57.80
14705;DHT22;7442;50.840;3.396;2023-07-30T11:26:19;24.20;57.50
14705;DHT22;7442;50.840;3.396;2023-07-30T11:29:19;24.30;57.20
14705;DHT22;7442;50.840;3.396;2023-07-30T11:32:06;24.20;57.20
14705;DHT22;7442;50.840;3.396;2023-07-30T11:34:53;24.20;57.50
14705;DHT22;7442;50.840;3.396;2023-07-30T11:37:40;24.20;57.80
14705;DHT22;7442;50.840;3.396;2023-07-30T11:40:28;24.20;57.20
14705;DHT22;7442;50.840;3.396;2023-07-30T11:43:15;24.20;57.20
14705;DHT22;7442;50.840;3.396;2023-07-30T11:46:09;24.20;57.50
14705;DHT22;7442;50.840;3.396;2023-07-30T11:49:12;24.20;57.50
14705;DHT22;7442;50.840;3.396;2023-07-30T11:55:04;24.20;56.90
14705;DHT22;7442;50.840;3.396;2023-07-30T11:57:52;24.20;56.80
14705;DHT22;7442;50.840;3.396;2023-07-30T12:00:39;24.30;57.00
14705;DHT22;7442;50.840;3.396;2023-07-30T12:03:26;24.20;56.70
14705;DHT22;7442;50.840;3.396;2023-07-30T12:06:12;24.20;56.80
14705;DHT22;7442;50.840;3.396;2023-07-30T12:08:59;24.20;56.80
14705;DHT22;7442;50.840;3.396;2023-07-30T12:12:01;24.20;56.80
14705;DHT22;7442;50.840;3.396;2023-07-30T12:17:37;24.20;56.60
14705;DHT22;7442;50.840;3.396;2023-07-30T12:20:27;24.30;56.70
14705;DHT22;7442;50.840;3.396;2023-07-30T12:23:12;24.30;57.10
14705;DHT22;7442;50.840;3.396;2023-07-30T12:25:59;24.30;56.40
14705;DHT22;7442;50.840;3.396;2023-07-30T12:28:46;24.30;56.30
14705;DHT22;7442;50.840;3.396;2023-07-30T12:31:32;24.30;56.30
14705;DHT22;7442;50.840;3.396;2023-07-30T12:34:19;24.30;56.10
14705;DHT22;7442;50.840;3.396;2023-07-30T12:37:05;24.30;56.10
14705;DHT22;7442;50.840;3.396;2023-07-30T12:42:20;24.30;56.20
14705;DHT22;7442;50.840;3.396;2023-07-30T12:45:07;24.30;56.00
14705;DHT22;7442;50.840;3.396;2023-07-30T12:47:53;24.40;56.00
14705;DHT22;7442;50.840;3.396;2023-07-30T12:50:39;24.40;56.00
14705;DHT22;7442;50.840;3.396;2023-07-30T12:53:26;24.40;55.90
14705;DHT22;7442;50.840;3.396;2023-07-30T12:56:12;24.40;55.90
14705;DHT22;7442;50.840;3.396;2023-07-30T12:59:00;24.40;55.80
14705;DHT22;7442;50.840;3.396;2023-07-30T13:01:46;24.40;55.80
14705;DHT22;7442;50.840;3.396;2023-07-30T13:04:32;24.40;55.90
14705;DHT22;7442;50.840;3.396;2023-07-30T13:07:19;24.30;55.90
14705;DHT22;7442;50.840;3.396;2023-07-30T13:10:09;24.30;55.90
14705;DHT22;7442;50.840;3.396;2023-07-30T13:12:55;24.30;56.00
14705;DHT22;7442;50.840;3.396;2023-07-30T13:15:41;24.30;55.90
14705;DHT22;7442;50.840;3.396;2023-07-30T13:18:28;24.30;56.00
14705;DHT22;7442;50.840;3.396;2023-07-30T13:21:14;24.30;56.10
14705;DHT22;7442;50.840;3.396;2023-07-30T13:24:00;24.30;56.20
14705;DHT22;7442;50.840;3.396;2023-07-30T13:26:47;24.30;56.20
14705;DHT22;7442;50.840;3.396;2023-07-30T13:29:33;24.30;56.30
14705;DHT22;7442;50.840;3.396;2023-07-30T13:32:19;24.30;56.30
14705;DHT22;7442;50.840;3.396;2023-07-30T13:35:06;24.30;56.30
14705;DHT22;7442;50.840;3.396;2023-07-30T13:37:53;24.30;56.40
14705;DHT22;7442;50.840;3.396;2023-07-30T13:40:39;24.30;56.40
14705;DHT22;7442;50.840;3.396;2023-07-30T13:43:25;24.30;56.30
14705;DHT22;7442;50.840;3.396;2023-07-30T13:46:12;24.40;56.30
14705;DHT22;7442;50.840;3.396;2023-07-30T13:48:58;24.30;56.30
14705;DHT22;7442;50.840;3.396;2023-07-30T13:51:44;24.30;56.30
14705;DHT22;7442;50.840;3.396;2023-07-30T13:54:31;24.40;56.30
14705;DHT22;7442;50.840;3.396;2023-07-30T13:57:24;24.40;56.30
14705;DHT22;7442;50.840;3.396;2023-07-30T14:00:11;24.30;56.20
14705;DHT22;7442;50.840;3.396;2023-07-30T14:02:58;24.30;56.30
14705;DHT22;7442;50.840;3.396;2023-07-30T14:05:44;24.30;56.40
14705;DHT22;7442;50.840;3.396;2023-07-30T14:08:31;24.30;56.30
14705;DHT22;7442;50.840;3.396;2023-07-30T14:11:17;24.30;56.40
14705;DHT22;7442;50.840;3.396;2023-07-30T14:14:03;24.30;56.50
14705;DHT22;7442;50.840;3.396;2023-07-30T14:16:51;24.30;56.50
14705;DHT22;7442;50.840;3.396;2023-07-30T14:19:37;24.30;56.70
14705;DHT22;7442;50.840;3.396;2023-07-30T14:22:24;24.30;56.60
14705;DHT22;7442;50.840;3.396;2023-07-30T14:25:10;24.30;56.70
14705;DHT22;7442;50.840;3.396;2023-07-30T14:27:57;24.20;56.70
14705;DHT22;7442;50.840;3.396;2023-07-30T14:30:43;24.20;56.90
14705;DHT22;7442;50.840;3.396;2023-07-30T14:33:29;24.20;57.00
14705;DHT22;7442;50.840;3.396;2023-07-30T14:36:16;24.20;57.20
14705;DHT22;7442;50.840;3.396;2023-07-30T14:39:02;24.20;57.20
14705;DHT22;7442;50.840;3.396;2023-07-30T14:41:48;24.20;57.40
14705;DHT22;7442;50.840;3.396;2023-07-30T14:44:35;24.20;57.50
14705;DHT22;7442;50.840;3.396;2023-07-30T14:47:23;24.10;57.40
14705;DHT22;7442;50.840;3.396;2023-07-30T14:50:10;24.10;57.40
14705;DHT22;7442;50.840;3.396;2023-07-30T14:52:56;24.10;57.60
14705;DHT22;7442;50.840;3.396;2023-07-30T14:55:42;24.10;57.60
14705;DHT22;7442;50.840;3.396;2023-07-30T14:58:28;24.10;57.80
14705;DHT22;7442;50.840;3.396;2023-07-30T15:01:14;24.10;57.90
14705;DHT22;7442;50.840;3.396;2023-07-30T15:04:01;24.00;58.00
14705;DHT22;7442;50.840;3.396;2023-07-30T15:06:47;24.00;57.90
14705;DHT22;7442;50.840;3.396;2023-07-30T15:09:34;24.00;58.00
14705;DHT22;7442;50.840;3.396;2023-07-30T15:12:22;24.00;58.10
14705;DHT22;7442;50.840;3.396;2023-07-30T15:15:08;24.00;58.20
14705;DHT22;7442;50.840;3.396;2023-07-30T15:17:54;24.00;58.30
14705;DHT22;7442;50.840;3.396;2023-07-30T15:20:41;24.00;58.40
14705;DHT22;7442;50.840;3.396;2023-07-30T15:23:27;23.90;58.50
14705;DHT22;7442;50.840;3.396;2023-07-30T15:26:14;23.90;58.80
14705;DHT22;7442;50.840;3.396;2023-07-30T15:29:01;23.90;59.00
14705;DHT22;7442;50.840;3.396;2023-07-30T15:31:49;23.90;59.10
14705;DHT22;7442;50.840;3.396;2023-07-30T15:34:36;23.90;59.30
14705;DHT22;7442;50.840;3.396;2023-07-30T15:37:22;23.90;59.50
14705;DHT22;7442;50.840;3.396;2023-07-30T15:40:09;23.90;59.60
14705;DHT22;7442;50.840;3.396;2023-07-30T15:42:55;23.90;59.80
14705;DHT22;7442;50.840;3.396;2023-07-30T15:45:41;23.80;59.90
14705;DHT22;7442;50.840;3.396;2023-07-30T15:48:31;23.80;60.20
14705;DHT22;7442;50.840;3.396;2023-07-30T15:51:18;23.80;60.40
14705;DHT22;7442;50.840;3.396;2023-07-30T15:54:04;23.80;60.60
14705;DHT22;7442;50.840;3.396;2023-07-30T15:56:51;23.70;60.70
14705;DHT22;7442;50.840;3.396;2023-07-30T15:59:37;23.70;61.10
14705;DHT22;7442;50.840;3.396;2023-07-30T16:02:24;23.70;61.30
14705;DHT22;7442;50.840;3.396;2023-07-30T16:05:10;23.70;61.30
14705;DHT22;7442;50.840;3.396;2023-07-30T16:07:57;23.70;61.60
14705;DHT22;7442;50.840;3.396;2023-07-30T16:10:44;23.60;61.70
14705;DHT22;7442;50.840;3.396;2023-07-30T16:13:30;23.60;61.70
14705;DHT22;7442;50.840;3.396;2023-07-30T16:16:17;23.60;62.00
14705;DHT22;7442;50.840;3.396;2023-07-30T16:19:03;23.60;62.00
14705;DHT22;7442;50.840;3.396;2023-07-30T16:21:51;23.70;62.20
14705;DHT22;7442;50.840;3.396;2023-07-30T16:24:39;23.70;62.20
14705;DHT22;7442;50.840;3.396;2023-07-30T16:27:26;23.60;62.20
14705;DHT22;7442;50.840;3.396;2023-07-30T16:30:12;23.60;62.40
14705;DHT22;7442;50.840;3.396;2023-07-30T16:32:59;23.60;62.60
14705;DHT22;7442;50.840;3.396;2023-07-30T16:35:47;23.60;62.80
14705;DHT22;7442;50.840;3.396;2023-07-30T16:38:33;23.60;62.90
14705;DHT22;7442;50.840;3.396;2023-07-30T16:41:20;23.60;63.00
14705;DHT22;7442;50.840;3.396;2023-07-30T16:44:13;23.60;63.10
14705;DHT22;7442;50.840;3.396;2023-07-30T16:47:00;23.60;63.30
14705;DHT22;7442;50.840;3.396;2023-07-30T16:49:48;23.60;63.50
14705;DHT22;7442;50.840;3.396;2023-07-30T16:52:35;23.60;63.50
14705;DHT22;7442;50.840;3.396;2023-07-30T16:55:21;23.60;63.60
14705;DHT22;7442;50.840;3.396;2023-07-30T16:58:15;23.60;63.60
14705;DHT22;7442;50.840;3.396;2023-07-30T17:01:09;23.60;64.00
14705;DHT22;7442;50.840;3.396;2023-07-30T17:03:55;23.60;64.50
14705;DHT22;7442;50.840;3.396;2023-07-30T17:06:42;23.60;64.20
14705;DHT22;7442;50.840;3.396;2023-07-30T17:09:28;23.50;64.40
14705;DHT22;7442;50.840;3.396;2023-07-30T17:12:15;23.60;64.90
14705;DHT22;7442;50.840;3.396;2023-07-30T17:15:06;23.70;64.80
14705;DHT22;7442;50.840;3.396;2023-07-30T17:17:53;23.60;64.80
14705;DHT22;7442;50.840;3.396;2023-07-30T17:20:40;23.60;65.00
14705;DHT22;7442;50.840;3.396;2023-07-30T17:23:27;23.60;65.30
14705;DHT22;7442;50.840;3.396;2023-07-30T17:26:14;23.50;65.40
14705;DHT22;7442;50.840;3.396;2023-07-30T17:29:00;23.60;65.70
14705;DHT22;7442;50.840;3.396;2023-07-30T17:31:48;23.50;66.50
14705;DHT22;7442;50.840;3.396;2023-07-30T17:34:35;23.50;65.70
14705;DHT22;7442;50.840;3.396;2023-07-30T17:37:21;23.60;65.90
14705;DHT22;7442;50.840;3.396;2023-07-30T17:40:09;23.60;66.10
14705;DHT22;7442;50.840;3.396;2023-07-30T17:42:56;23.50;66.00
14705;DHT22;7442;50.840;3.396;2023-07-30T17:45:42;23.50;66.10
14705;DHT22;7442;50.840;3.396;2023-07-30T17:48:29;23.50;66.20
14705;DHT22;7442;50.840;3.396;2023-07-30T17:51:16;23.50;66.50
14705;DHT22;7442;50.840;3.396;2023-07-30T17:54:03;23.50;66.50
14705;DHT22;7442;50.840;3.396;2023-07-30T17:56:49;23.50;66.40
14705;DHT22;7442;50.840;3.396;2023-07-30T17:59:36;23.50;66.50
14705;DHT22;7442;50.840;3.396;2023-07-30T18:02:22;23.50;66.60
14705;DHT22;7442;50.840;3.396;2023-07-30T18:05:09;23.50;66.60
14705;DHT22;7442;50.840;3.396;2023-07-30T18:07:56;23.50;66.50
14705;DHT22;7442;50.840;3.396;2023-07-30T18:10:44;23.50;66.60
14705;DHT22;7442;50.840;3.396;2023-07-30T18:13:31;23.50;66.80
14705;DHT22;7442;50.840;3.396;2023-07-30T18:16:17;23.50;66.80
14705;DHT22;7442;50.840;3.396;2023-07-30T18:19:03;23.50;66.90
14705;DHT22;7442;50.840;3.396;2023-07-30T18:21:50;23.50;67.00
14705;DHT22;7442;50.840;3.396;2023-07-30T18:24:37;23.50;67.00
14705;DHT22;7442;50.840;3.396;2023-07-30T18:27:23;23.50;67.10
14705;DHT22;7442;50.840;3.396;2023-07-30T18:30:10;23.40;67.10
14705;DHT22;7442;50.840;3.396;2023-07-30T18:33:02;23.40;67.10
14705;DHT22;7442;50.840;3.396;2023-07-30T18:35:57;23.40;67.20
14705;DHT22;7442;50.840;3.396;2023-07-30T18:38:44;23.50;67.30
14705;DHT22;7442;50.840;3.396;2023-07-30T18:41:30;23.40;67.20
14705;DHT22;7442;50.840;3.396;2023-07-30T18:44:16;23.40;67.40
14705;DHT22;7442;50.840;3.396;2023-07-30T18:47:03;23.50;67.30
14705;DHT22;7442;50.840;3.396;2023-07-30T18:49:50;23.40;67.40
14705;DHT22;7442;50.840;3.396;2023-07-30T18:52:37;23.40;67.40
14705;DHT22;7442;50.840;3.396;2023-07-30T18:55:24;23.40;67.60
14705;DHT22;7442;50.840;3.396;2023-07-30T18:58:10;23.40;67.60
14705;DHT22;7442;50.840;3.396;2023-07-30T19:00:57;23.40;67.60
14705;DHT22;7442;50.840;3.396;2023-07-30T19:03:43;23.40;67.60
14705;DHT22;7442;50.840;3.396;2023-07-30T19:06:29;23.40;67.70
14705;DHT22;7442;50.840;3.396;2023-07-30T19:09:16;23.40;67.80
14705;DHT22;7442;50.840;3.396;2023-07-30T19:12:02;23.40;67.90
14705;DHT22;7442;50.840;3.396;2023-07-30T19:14:49;23.30;67.80
14705;DHT22;7442;50.840;3.396;2023-07-30T19:17:37;23.30;67.90
14705;DHT22;7442;50.840;3.396;2023-07-30T19:20:23;23.30;67.90
14705;DHT22;7442;50.840;3.396;2023-07-30T19:23:09;23.30;67.80
14705;DHT22;7442;50.840;3.396;2023-07-30T19:25:56;23.30;67.90
14705;DHT22;7442;50.840;3.396;2023-07-30T19:28:42;23.30;68.00
14705;DHT22;7442;50.840;3.396;2023-07-30T19:31:30;23.30;68.00
14705;DHT22;7442;50.840;3.396;2023-07-30T19:34:17;23.30;68.00
14705;DHT22;7442;50.840;3.396;2023-07-30T19:37:03;23.30;68.00
14705;DHT22;7442;50.840;3.396;2023-07-30T19:39:50;23.30;68.00
14705;DHT22;7442;50.840;3.396;2023-07-30T19:42:36;23.20;67.90
14705;DHT22;7442;50.840;3.396;2023-07-30T19:45:22;23.30;68.10
14705;DHT22;7442;50.840;3.396;2023-07-30T19:48:08;23.20;68.10
14705;DHT22;7442;50.840;3.396;2023-07-30T19:50:55;23.20;68.10
14705;DHT22;7442;50.840;3.396;2023-07-30T19:53:42;23.20;68.20
14705;DHT22;7442;50.840;3.396;2023-07-30T19:56:28;23.20;68.20
14705;DHT22;7442;50.840;3.396;2023-07-30T19:59:15;23.20;68.20
14705;DHT22;7442;50.840;3.396;2023-07-30T20:02:01;23.20;68.20
14705;DHT22;7442;50.840;3.396;2023-07-30T20:04:47;23.20;68.10
14705;DHT22;7442;50.840;3.396;2023-07-30T20:07:33;23.20;68.20
14705;DHT22;7442;50.840;3.396;2023-07-30T20:10:20;23.20;68.40
14705;DHT22;7442;50.840;3.396;2023-07-30T20:13:06;23.20;68.40
14705;DHT22;7442;50.840;3.396;2023-07-30T20:15:53;23.20;68.40
14705;DHT22;7442;50.840;3.396;2023-07-30T20:18:39;23.20;68.40
14705;DHT22;7442;50.840;3.396;2023-07-30T20:21:25;23.20;68.50
14705;DHT22;7442;50.840;3.396;2023-07-30T20:24:12;23.20;68.70
14705;DHT22;7442;50.840;3.396;2023-07-30T20:26:58;23.20;68.90
14705;DHT22;7442;50.840;3.396;2023-07-30T20:29:45;23.20;69.00
14705;DHT22;7442;50.840;3.396;2023-07-30T20:32:32;23.20;69.20
14705;DHT22;7442;50.840;3.396;2023-07-30T20:35:18;23.10;69.10
14705;DHT22;7442;50.840;3.396;2023-07-30T20:38:04;23.10;69.10
14705;DHT22;7442;50.840;3.396;2023-07-30T20:40:51;23.10;69.10
14705;DHT22;7442;50.840;3.396;2023-07-30T20:43:37;23.10;69.30
14705;DHT22;7442;50.840;3.396;2023-07-30T20:46:24;23.10;69.30
14705;DHT22;7442;50.840;3.396;2023-07-30T20:49:10;23.10;69.40
14705;DHT22;7442;50.840;3.396;2023-07-30T20:51:57;23.10;69.10
14705;DHT22;7442;50.840;3.396;2023-07-30T20:54:43;23.20;69.20
14705;DHT22;7442;50.840;3.396;2023-07-30T20:57:29;23.10;69.10
14705;DHT22;7442;50.840;3.396;2023-07-30T21:00:15;23.10;69.30
14705;DHT22;7442;50.840;3.396;2023-07-30T21:03:02;23.10;69.40
14705;DHT22;7442;50.840;3.396;2023-07-30T21:05:48;23.10;69.40
14705;DHT22;7442;50.840;3.396;2023-07-30T21:08:34;23.10;69.50
14705;DHT22;7442;50.840;3.396;2023-07-30T21:11:20;23.00;69.40
14705;DHT22;7442;50.840;3.396;2023-07-30T21:14:06;23.10;69.50
14705;DHT22;7442;50.840;3.396;2023-07-30T21:16:53;23.00;69.40
14705;DHT22;7442;50.840;3.396;2023-07-30T21:19:39;23.00;69.50
14705;DHT22;7442;50.840;3.396;2023-07-30T21:22:26;23.00;69.50
14705;DHT22;7442;50.840;3.396;2023-07-30T21:25:12;23.00;69.40
14705;DHT22;7442;50.840;3.396;2023-07-30T21:27:59;23.00;69.40
14705;DHT22;7442;50.840;3.396;2023-07-30T21:30:45;23.00;69.40
14705;DHT22;7442;50.840;3.396;2023-07-30T21:33:33;23.10;69.30
14705;DHT22;7442;50.840;3.396;2023-07-30T21:36:19;23.00;69.20
14705;DHT22;7442;50.840;3.396;2023-07-30T21:39:06;23.00;69.00
14705;DHT22;7442;50.840;3.396;2023-07-30T21:41:52;23.00;69.00
14705;DHT22;7442;50.840;3.396;2023-07-30T21:44:38;23.00;69.00
14705;DHT22;7442;50.840;3.396;2023-07-30T21:47:24;23.00;69.00
14705;DHT22;7442;50.840;3.396;2023-07-30T21:50:11;23.00;69.00
14705;DHT22;7442;50.840;3.396;2023-07-30T21:52:57;23.00;69.10
14705;DHT22;7442;50.840;3.396;2023-07-30T21:55:44;23.00;69.00
14705;DHT22;7442;50.840;3.396;2023-07-30T21:58:30;23.00;69.00
14705;DHT22;7442;50.840;3.396;2023-07-30T22:01:17;22.90;69.00
14705;DHT22;7442;50.840;3.396;2023-07-30T22:04:03;22.90;69.00
14705;DHT22;7442;50.840;3.396;2023-07-30T22:06:49;22.90;69.00
14705;DHT22;7442;50.840;3.396;2023-07-30T22:09:44;22.90;69.00
14705;DHT22;7442;50.840;3.396;2023-07-30T22:12:27;22.90;68.90
14705;DHT22;7442;50.840;3.396;2023-07-30T22:15:13;22.90;68.90
14705;DHT22;7442;50.840;3.396;2023-07-30T22:18:00;22.90;68.80
14705;DHT22;7442;50.840;3.396;2023-07-30T22:20:46;22.90;68.80
14705;DHT22;7442;50.840;3.396;2023-07-30T22:23:32;22.90;68.80
14705;DHT22;7442;50.840;3.396;2023-07-30T22:26:20;22.90;68.80
14705;DHT22;7442;50.840;3.396;2023-07-30T22:29:06;22.90;68.80
14705;DHT22;7442;50.840;3.396;2023-07-30T22:31:52;22.90;68.80
14705;DHT22;7442;50.840;3.396;2023-07-30T22:34:38;22.80;68.70
14705;DHT22;7442;50.840;3.396;2023-07-30T22:37:25;22.90;68.80
14705;DHT22;7442;50.840;3.396;2023-07-30T22:40:11;22.80;68.70
14705;DHT22;7442;50.840;3.396;2023-07-30T22:42:58;22.80;68.70
14705;DHT22;7442;50.840;3.396;2023-07-30T22:45:44;22.80;68.70
14705;DHT22;7442;50.840;3.396;2023-07-30T22:48:31;22.80;68.70
14705;DHT22;7442;50.840;3.396;2023-07-30T22:51:17;22.80;68.60
14705;DHT22;7442;50.840;3.396;2023-07-30T22:54:04;22.80;68.60
14705;DHT22;7442;50.840;3.396;2023-07-30T22:56:50;22.80;68.60
14705;DHT22;7442;50.840;3.396;2023-07-30T22:59:36;22.80;68.60
14705;DHT22;7442;50.840;3.396;2023-07-30T23:02:22;22.80;68.60
14705;DHT22;7442;50.840;3.396;2023-07-30T23:05:09;22.80;68.60
14705;DHT22;7442;50.840;3.396;2023-07-30T23:07:55;22.80;68.60
14705;DHT22;7442;50.840;3.396;2023-07-30T23:10:41;22.80;68.60
14705;DHT22;7442;50.840;3.396;2023-07-30T23:13:27;22.80;68.50
14705;DHT22;7442;50.840;3.396;2023-07-30T23:16:14;22.80;68.50
14705;DHT22;7442;50.840;3.396;2023-07-30T23:19:00;22.70;68.50
14705;DHT22;7442;50.840;3.396;2023-07-30T23:21:46;22.70;68.50
14705;DHT22;7442;50.840;3.396;2023-07-30T23:24:33;22.70;68.50
14705;DHT22;7442;50.840;3.396;2023-07-30T23:27:19;22.70;68.40
14705;DHT22;7442;50.840;3.396;2023-07-30T23:30:06;22.70;68.40
14705;DHT22;7442;50.840;3.396;2023-07-30T23:32:52;22.70;68.50
14705;DHT22;7442;50.840;3.396;2023-07-30T23:35:38;22.70;68.30
14705;DHT22;7442;50.840;3.396;2023-07-30T23:38:25;22.70;68.30
14705;DHT22;7442;50.840;3.396;2023-07-30T23:41:11;22.70;68.30
14705;DHT22;7442;50.840;3.396;2023-07-30T23:43:57;22.70;68.30
14705;DHT22;7442;50.840;3.396;2023-07-30T23:46:43;22.70;68.30
14705;DHT22;7442;50.840;3.396;2023-07-30T23:49:29;22.70;68.30
14705;DHT22;7442;50.840;3.396;2023-07-30T23:52:15;22.60;68.20
14705;DHT22;7442;50.840;3.396;2023-07-30T23:55:02;22.60;68.20
14705;DHT22;7442;50.840;3.396;2023-07-30T23:57:48;22.60;68.30
